sensor_id;sensor_type;location;lat;lon;timestamp;P1;durP1;ratioP1;P2;durP2;ratioP2
25980;SDS011;13772;52.996;9.124;2023-02-03T07:59:08;3.83;;;0.63;;
25980;SDS011;13772;52.996;9.124;2023-02-03T08:01:33;3.25;;;0.60;;
25980;SDS011;13772;52.996;9.124;2023-02-03T08:03:58;1.33;;;0.60;;
25980;SDS011;13772;52.996;9.124;2023-02-03T08:06:26;0.98;;;0.40;;
25980;SDS011;13772;52.996;9.124;2023-02-03T08:08:51;2.30;;;0.55;;
25980;SDS011;13772;52.996;9.124;2023-02-03T08:11:18;0.88;;;0.50;;
25980;SDS011;13772;52.996;9.124;2023-02-03T08:13:43;2.92;;;0.50;;
25980;SDS011;13772;52.996;9.124;2023-02-03T08:16:08;2.03;;;0.60;;
25980;SDS011;13772;52.996;9.124;2023-02-03T08:18:33;1.88;;;0.68;;
25980;SDS011;13772;52.996;9.124;2023-02-03T08:20:58;1.80;;;0.50;;
25980;SDS011;13772;52.996;9.124;2023-02-03T08:23:24;1.42;;;0.55;;
25980;SDS011;13772;52.996;9.124;2023-02-03T08:25:52;3.15;;;0.50;;
25980;SDS011;13772;52.996;9.124;2023-02-03T08:28:18;2.90;;;0.60;;
25980;SDS011;13772;52.996;9.124;2023-02-03T08:30:43;1.63;;;0.65;;
25980;SDS011;13772;52.996;9.124;2023-02-03T08:33:08;2.00;;;0.73;;
25980;SDS011;13772;52.996;9.124;2023-02-03T08:35:34;1.08;;;0.45;;
25980;SDS011;13772;52.996;9.124;2023-02-03T08:37:59;2.17;;;0.50;;
25980;SDS011;13772;52.996;9.124;2023-02-03T08:40:24;11.13;;;2.53;;
25980;SDS011;13772;52.996;9.124;2023-02-03T08:42:49;9.00;;;2.42;;
25980;SDS011;13772;52.996;9.124;2023-02-03T08:45:14;10.38;;;2.55;;
25980;SDS011;13772;52.996;9.124;2023-02-03T08:47:40;11.40;;;2.47;;
25980;SDS011;13772;52.996;9.124;2023-02-03T08:50:06;12.38;;;2.88;;
25980;SDS011;13772;52.996;9.124;2023-02-03T08:52:32;11.02;;;2.40;;
25980;SDS011;13772;52.996;9.124;2023-02-03T08:54:57;11.18;;;2.60;;
25980;SDS011;13772;52.996;9.124;2023-02-03T08:57:22;11.40;;;2.67;;
25980;SDS011;13772;52.996;9.124;2023-02-03T08:59:47;12.77;;;3.85;;
25980;SDS011;13772;52.996;9.124;2023-02-03T09:02:14;16.63;;;2.70;;
25980;SDS011;13772;52.996;9.124;2023-02-03T09:04:40;12.32;;;2.72;;
25980;SDS011;13772;52.996;9.124;2023-02-03T09:07:06;12.80;;;2.78;;
25980;SDS011;13772;52.996;9.124;2023-02-03T09:09:31;17.95;;;2.70;;
25980;SDS011;13772;52.996;9.124;2023-02-03T09:11:56;17.30;;;3.13;;
25980;SDS011;13772;52.996;9.124;2023-02-03T09:14:29;20.23;;;3.20;;
25980;SDS011;13772;52.996;9.124;2023-02-03T09:16:55;19.17;;;4.10;;
25980;SDS011;13772;52.996;9.124;2023-02-03T09:19:20;19.08;;;3.63;;
25980;SDS011;13772;52.996;9.124;2023-02-03T09:21:45;18.17;;;3.25;;
25980;SDS011;13772;52.996;9.124;2023-02-03T09:24:13;16.00;;;3.47;;
25980;SDS011;13772;52.996;9.124;2023-02-03T09:26:38;13.52;;;2.67;;
25980;SDS011;13772;52.996;9.124;2023-02-03T09:29:03;13.02;;;2.78;;
25980;SDS011;13772;52.996;9.124;2023-02-03T09:31:29;16.80;;;2.63;;
25980;SDS011;13772;52.996;9.124;2023-02-03T09:33:54;12.55;;;2.60;;
25980;SDS011;13772;52.996;9.124;2023-02-03T09:36:19;15.07;;;2.80;;
25980;SDS011;13772;52.996;9.124;2023-02-03T09:38:44;17.40;;;3.33;;
25980;SDS011;13772;52.996;9.124;2023-02-03T09:43:38;17.23;;;2.83;;
25980;SDS011;13772;52.996;9.124;2023-02-03T09:46:14;16.35;;;3.08;;
25980;SDS011;13772;52.996;9.124;2023-02-03T09:48:41;13.30;;;2.17;;
25980;SDS011;13772;52.996;9.124;2023-02-03T09:51:30;16.70;;;2.53;;
25980;SDS011;13772;52.996;9.124;2023-02-03T09:53:55;18.60;;;3.50;;
25980;SDS011;13772;52.996;9.124;2023-02-03T09:56:31;17.60;;;3.35;;
25980;SDS011;13772;52.996;9.124;2023-02-03T09:58:57;27.63;;;4.72;;
25980;SDS011;13772;52.996;9.124;2023-02-03T10:01:24;20.17;;;3.38;;
25980;SDS011;13772;52.996;9.124;2023-02-03T10:04:35;25.27;;;4.05;;
25980;SDS011;13772;52.996;9.124;2023-02-03T10:06:41;17.98;;;3.45;;
25980;SDS011;13772;52.996;9.124;2023-02-03T10:12:01;20.60;;;3.53;;
25980;SDS011;13772;52.996;9.124;2023-02-03T10:17:07;24.10;;;4.00;;
25980;SDS011;13772;52.996;9.124;2023-02-03T10:19:54;21.33;;;4.70;;
25980;SDS011;13772;52.996;9.124;2023-02-03T10:22:22;24.00;;;4.10;;
25980;SDS011;13772;52.996;9.124;2023-02-03T10:24:51;23.45;;;4.25;;
25980;SDS011;13772;52.996;9.124;2023-02-03T10:27:19;16.83;;;4.07;;
25980;SDS011;13772;52.996;9.124;2023-02-03T10:29:44;18.35;;;4.60;;
25980;SDS011;13772;52.996;9.124;2023-02-03T10:32:15;24.42;;;3.97;;
25980;SDS011;13772;52.996;9.124;2023-02-03T10:34:40;23.55;;;4.88;;
25980;SDS011;13772;52.996;9.124;2023-02-03T10:37:11;22.05;;;4.47;;
25980;SDS011;13772;52.996;9.124;2023-02-03T10:42:08;23.85;;;4.15;;
25980;SDS011;13772;52.996;9.124;2023-02-03T10:44:56;24.45;;;4.80;;
25980;SDS011;13772;52.996;9.124;2023-02-03T10:47:22;26.40;;;4.50;;
25980;SDS011;13772;52.996;9.124;2023-02-03T10:49:52;24.58;;;5.40;;
25980;SDS011;13772;52.996;9.124;2023-02-03T10:52:50;31.25;;;5.68;;
25980;SDS011;13772;52.996;9.124;2023-02-03T10:57:49;26.15;;;4.40;;
25980;SDS011;13772;52.996;9.124;2023-02-03T11:02:40;31.33;;;5.50;;
25980;SDS011;13772;52.996;9.124;2023-02-03T11:07:40;25.55;;;5.05;;
25980;SDS011;13772;52.996;9.124;2023-02-03T11:10:24;25.63;;;4.82;;
25980;SDS011;13772;52.996;9.124;2023-02-03T11:12:49;24.80;;;5.13;;
25980;SDS011;13772;52.996;9.124;2023-02-03T11:15:15;29.27;;;5.28;;
25980;SDS011;13772;52.996;9.124;2023-02-03T11:17:42;23.15;;;4.53;;
25980;SDS011;13772;52.996;9.124;2023-02-03T11:20:14;26.45;;;5.13;;
25980;SDS011;13772;52.996;9.124;2023-02-03T11:22:41;26.65;;;4.93;;
25980;SDS011;13772;52.996;9.124;2023-02-03T11:25:24;23.73;;;4.68;;
25980;SDS011;13772;52.996;9.124;2023-02-03T11:27:51;25.70;;;5.13;;
25980;SDS011;13772;52.996;9.124;2023-02-03T11:30:19;25.90;;;4.70;;
25980;SDS011;13772;52.996;9.124;2023-02-03T11:32:47;27.88;;;4.70;;
25980;SDS011;13772;52.996;9.124;2023-02-03T11:37:42;28.50;;;5.55;;
25980;SDS011;13772;52.996;9.124;2023-02-03T11:42:43;34.13;;;6.28;;
25980;SDS011;13772;52.996;9.124;2023-02-03T11:45:12;25.83;;;4.38;;
25980;SDS011;13772;52.996;9.124;2023-02-03T11:47:42;31.83;;;5.22;;
25980;SDS011;13772;52.996;9.124;2023-02-03T11:55:02;19.88;;;4.43;;
25980;SDS011;13772;52.996;9.124;2023-02-03T12:12:47;21.63;;;3.90;;
25980;SDS011;13772;52.996;9.124;2023-02-03T12:30:57;23.98;;;3.85;;
25980;SDS011;13772;52.996;9.124;2023-02-03T12:33:29;21.73;;;3.97;;
25980;SDS011;13772;52.996;9.124;2023-02-03T12:36:13;17.25;;;4.68;;
25980;SDS011;13772;52.996;9.124;2023-02-03T12:38:42;26.65;;;4.60;;
25980;SDS011;13772;52.996;9.124;2023-02-03T12:41:51;18.83;;;4.18;;
25980;SDS011;13772;52.996;9.124;2023-02-03T12:43:57;21.57;;;3.90;;
25980;SDS011;13772;52.996;9.124;2023-02-03T12:46:39;19.80;;;4.65;;
25980;SDS011;13772;52.996;9.124;2023-02-03T12:51:45;21.33;;;3.97;;
25980;SDS011;13772;52.996;9.124;2023-02-03T12:56:54;18.75;;;3.67;;
25980;SDS011;13772;52.996;9.124;2023-02-03T12:59:21;23.42;;;4.80;;
25980;SDS011;13772;52.996;9.124;2023-02-03T13:01:55;21.60;;;4.85;;
25980;SDS011;13772;52.996;9.124;2023-02-03T13:04:30;24.38;;;4.25;;
25980;SDS011;13772;52.996;9.124;2023-02-03T13:09:53;17.65;;;4.07;;
25980;SDS011;13772;52.996;9.124;2023-02-03T13:12:30;24.52;;;4.57;;
25980;SDS011;13772;52.996;9.124;2023-02-03T13:15:09;22.65;;;4.45;;
25980;SDS011;13772;52.996;9.124;2023-02-03T13:17:42;21.42;;;4.15;;
25980;SDS011;13772;52.996;9.124;2023-02-03T13:20:41;19.83;;;3.72;;
25980;SDS011;13772;52.996;9.124;2023-02-03T13:23:03;27.65;;;4.68;;
25980;SDS011;13772;52.996;9.124;2023-02-03T13:30:44;18.80;;;3.78;;
25980;SDS011;13772;52.996;9.124;2023-02-03T13:36:02;24.10;;;3.35;;
25980;SDS011;13772;52.996;9.124;2023-02-03T13:41:09;17.02;;;3.65;;
25980;SDS011;13772;52.996;9.124;2023-02-03T13:43:36;24.58;;;4.45;;
25980;SDS011;13772;52.996;9.124;2023-02-03T13:46:02;20.83;;;3.72;;
25980;SDS011;13772;52.996;9.124;2023-02-03T13:48:29;23.45;;;3.65;;
25980;SDS011;13772;52.996;9.124;2023-02-03T13:53:27;23.98;;;4.90;;
25980;SDS011;13772;52.996;9.124;2023-02-03T13:58:23;22.30;;;4.85;;
25980;SDS011;13772;52.996;9.124;2023-02-03T14:03:18;27.83;;;5.18;;
25980;SDS011;13772;52.996;9.124;2023-02-03T14:06:02;20.95;;;4.28;;
25980;SDS011;13772;52.996;9.124;2023-02-03T14:13:36;25.45;;;5.38;;
25980;SDS011;13772;52.996;9.124;2023-02-03T14:18:45;18.52;;;4.07;;
25980;SDS011;13772;52.996;9.124;2023-02-03T14:21:11;25.75;;;3.90;;
25980;SDS011;13772;52.996;9.124;2023-02-03T14:23:40;21.77;;;4.53;;
25980;SDS011;13772;52.996;9.124;2023-02-03T14:26:06;22.42;;;4.47;;
25980;SDS011;13772;52.996;9.124;2023-02-03T14:28:39;25.45;;;4.55;;
25980;SDS011;13772;52.996;9.124;2023-02-03T14:31:07;27.52;;;5.30;;
25980;SDS011;13772;52.996;9.124;2023-02-03T14:36:27;20.05;;;4.50;;
25980;SDS011;13772;52.996;9.124;2023-02-03T14:38:54;17.35;;;3.80;;
25980;SDS011;13772;52.996;9.124;2023-02-03T14:41:22;20.73;;;4.93;;
25980;SDS011;13772;52.996;9.124;2023-02-03T14:43:56;20.67;;;4.15;;
25980;SDS011;13772;52.996;9.124;2023-02-03T14:46:33;20.45;;;4.07;;
25980;SDS011;13772;52.996;9.124;2023-02-03T14:49:13;20.80;;;4.03;;
25980;SDS011;13772;52.996;9.124;2023-02-03T14:59:39;21.73;;;4.68;;
25980;SDS011;13772;52.996;9.124;2023-02-03T15:02:07;22.03;;;4.23;;
25980;SDS011;13772;52.996;9.124;2023-02-03T15:04:33;30.42;;;4.53;;
25980;SDS011;13772;52.996;9.124;2023-02-03T15:06:58;18.33;;;3.95;;
25980;SDS011;13772;52.996;9.124;2023-02-03T15:11:51;21.00;;;3.85;;
25980;SDS011;13772;52.996;9.124;2023-02-03T15:14:19;23.88;;;3.85;;
25980;SDS011;13772;52.996;9.124;2023-02-03T15:16:44;22.60;;;3.90;;
25980;SDS011;13772;52.996;9.124;2023-02-03T15:19:16;24.77;;;3.85;;
25980;SDS011;13772;52.996;9.124;2023-02-03T15:21:42;26.55;;;4.22;;
25980;SDS011;13772;52.996;9.124;2023-02-03T15:24:15;24.85;;;4.30;;
25980;SDS011;13772;52.996;9.124;2023-02-03T15:26:46;28.15;;;4.47;;
25980;SDS011;13772;52.996;9.124;2023-02-03T15:29:18;20.25;;;4.95;;
25980;SDS011;13772;52.996;9.124;2023-02-03T15:31:46;19.02;;;4.18;;
25980;SDS011;13772;52.996;9.124;2023-02-03T15:34:25;27.83;;;4.25;;
25980;SDS011;13772;52.996;9.124;2023-02-03T15:36:53;23.73;;;4.35;;
25980;SDS011;13772;52.996;9.124;2023-02-03T15:39:28;30.38;;;5.55;;
25980;SDS011;13772;52.996;9.124;2023-02-03T15:41:57;22.10;;;4.70;;
25980;SDS011;13772;52.996;9.124;2023-02-03T15:44:27;23.33;;;4.20;;
25980;SDS011;13772;52.996;9.124;2023-02-03T15:46:54;21.15;;;4.68;;
25980;SDS011;13772;52.996;9.124;2023-02-03T15:49:23;28.40;;;4.30;;
25980;SDS011;13772;52.996;9.124;2023-02-03T15:51:50;23.02;;;3.63;;
25980;SDS011;13772;52.996;9.124;2023-02-03T15:59:25;23.38;;;4.45;;
25980;SDS011;13772;52.996;9.124;2023-02-03T16:01:53;27.15;;;5.20;;
25980;SDS011;13772;52.996;9.124;2023-02-03T16:04:18;25.30;;;4.15;;
25980;SDS011;13772;52.996;9.124;2023-02-03T16:06:45;19.48;;;4.03;;
25980;SDS011;13772;52.996;9.124;2023-02-03T16:09:30;19.58;;;4.75;;
25980;SDS011;13772;52.996;9.124;2023-02-03T16:14:30;25.83;;;4.65;;
25980;SDS011;13772;52.996;9.124;2023-02-03T16:16:56;20.15;;;3.90;;
25980;SDS011;13772;52.996;9.124;2023-02-03T16:19:21;24.65;;;4.55;;
25980;SDS011;13772;52.996;9.124;2023-02-03T16:24:55;23.67;;;4.82;;
25980;SDS011;13772;52.996;9.124;2023-02-03T16:29:46;23.90;;;4.28;;
25980;SDS011;13772;52.996;9.124;2023-02-03T16:32:30;22.20;;;4.10;;
25980;SDS011;13772;52.996;9.124;2023-02-03T16:35:14;29.08;;;4.85;;
25980;SDS011;13772;52.996;9.124;2023-02-03T16:38:03;26.35;;;4.05;;
25980;SDS011;13772;52.996;9.124;2023-02-03T16:40:47;26.23;;;4.68;;
25980;SDS011;13772;52.996;9.124;2023-02-03T16:43:31;27.95;;;4.93;;
25980;SDS011;13772;52.996;9.124;2023-02-03T16:46:15;28.15;;;5.55;;
25980;SDS011;13772;52.996;9.124;2023-02-03T16:48:59;21.83;;;5.03;;
25980;SDS011;13772;52.996;9.124;2023-02-03T16:51:43;27.45;;;4.82;;
25980;SDS011;13772;52.996;9.124;2023-02-03T16:54:08;30.58;;;5.43;;
25980;SDS011;13772;52.996;9.124;2023-02-03T16:56:35;28.20;;;5.55;;
25980;SDS011;13772;52.996;9.124;2023-02-03T16:59:00;27.17;;;5.78;;
25980;SDS011;13772;52.996;9.124;2023-02-03T17:01:25;29.30;;;4.68;;
25980;SDS011;13772;52.996;9.124;2023-02-03T17:03:50;30.60;;;5.32;;
25980;SDS011;13772;52.996;9.124;2023-02-03T17:06:15;25.33;;;4.72;;
25980;SDS011;13772;52.996;9.124;2023-02-03T17:08:41;28.35;;;5.20;;
25980;SDS011;13772;52.996;9.124;2023-02-03T17:11:16;22.05;;;4.45;;
25980;SDS011;13772;52.996;9.124;2023-02-03T17:13:42;34.42;;;4.55;;
25980;SDS011;13772;52.996;9.124;2023-02-03T17:16:08;29.75;;;5.70;;
25980;SDS011;13772;52.996;9.124;2023-02-03T17:18:34;34.33;;;4.68;;
25980;SDS011;13772;52.996;9.124;2023-02-03T17:21:03;24.20;;;4.80;;
25980;SDS011;13772;52.996;9.124;2023-02-03T17:23:29;31.35;;;5.38;;
25980;SDS011;13772;52.996;9.124;2023-02-03T17:25:54;27.23;;;5.30;;
25980;SDS011;13772;52.996;9.124;2023-02-03T17:28:19;29.90;;;5.32;;
25980;SDS011;13772;52.996;9.124;2023-02-03T17:30:44;21.63;;;4.70;;
25980;SDS011;13772;52.996;9.124;2023-02-03T17:33:10;30.02;;;5.28;;
25980;SDS011;13772;52.996;9.124;2023-02-03T17:35:37;25.00;;;4.85;;
25980;SDS011;13772;52.996;9.124;2023-02-03T17:38:02;29.40;;;5.15;;
25980;SDS011;13772;52.996;9.124;2023-02-03T17:40:27;24.27;;;5.05;;
25980;SDS011;13772;52.996;9.124;2023-02-03T17:42:53;27.88;;;4.97;;
25980;SDS011;13772;52.996;9.124;2023-02-03T17:45:18;37.85;;;5.80;;
25980;SDS011;13772;52.996;9.124;2023-02-03T17:47:43;33.92;;;5.43;;
25980;SDS011;13772;52.996;9.124;2023-02-03T17:50:08;30.92;;;5.95;;
25980;SDS011;13772;52.996;9.124;2023-02-03T17:52:34;25.60;;;5.13;;
25980;SDS011;13772;52.996;9.124;2023-02-03T17:54:59;31.80;;;5.63;;
25980;SDS011;13772;52.996;9.124;2023-02-03T17:57:24;39.67;;;5.78;;
25980;SDS011;13772;52.996;9.124;2023-02-03T17:59:50;33.15;;;5.82;;
25980;SDS011;13772;52.996;9.124;2023-02-03T18:02:19;24.70;;;4.90;;
25980;SDS011;13772;52.996;9.124;2023-02-03T18:04:44;24.92;;;4.85;;
25980;SDS011;13772;52.996;9.124;2023-02-03T18:07:09;26.83;;;5.75;;
25980;SDS011;13772;52.996;9.124;2023-02-03T18:09:34;23.95;;;4.88;;
25980;SDS011;13772;52.996;9.124;2023-02-03T18:12:00;33.85;;;6.65;;
25980;SDS011;13772;52.996;9.124;2023-02-03T18:14:25;32.38;;;5.78;;
25980;SDS011;13772;52.996;9.124;2023-02-03T18:16:50;32.88;;;5.65;;
25980;SDS011;13772;52.996;9.124;2023-02-03T18:19:15;34.50;;;5.60;;
25980;SDS011;13772;52.996;9.124;2023-02-03T18:21:41;32.03;;;5.55;;
25980;SDS011;13772;52.996;9.124;2023-02-03T18:24:07;36.80;;;5.43;;
25980;SDS011;13772;52.996;9.124;2023-02-03T18:26:33;31.40;;;4.90;;
25980;SDS011;13772;52.996;9.124;2023-02-03T18:29:01;29.63;;;5.13;;
25980;SDS011;13772;52.996;9.124;2023-02-03T18:31:27;24.50;;;4.78;;
25980;SDS011;13772;52.996;9.124;2023-02-03T18:33:52;28.13;;;5.40;;
25980;SDS011;13772;52.996;9.124;2023-02-03T18:36:17;34.83;;;5.25;;
25980;SDS011;13772;52.996;9.124;2023-02-03T18:38:43;33.80;;;5.72;;
25980;SDS011;13772;52.996;9.124;2023-02-03T18:41:13;27.45;;;4.45;;
25980;SDS011;13772;52.996;9.124;2023-02-03T18:43:39;29.25;;;6.20;;
25980;SDS011;13772;52.996;9.124;2023-02-03T18:46:07;27.05;;;5.05;;
25980;SDS011;13772;52.996;9.124;2023-02-03T18:48:32;32.47;;;5.03;;
25980;SDS011;13772;52.996;9.124;2023-02-03T18:50:57;30.50;;;6.68;;
25980;SDS011;13772;52.996;9.124;2023-02-03T18:53:23;28.13;;;5.50;;
25980;SDS011;13772;52.996;9.124;2023-02-03T18:55:48;28.50;;;5.13;;
25980;SDS011;13772;52.996;9.124;2023-02-03T18:58:13;36.60;;;5.85;;
25980;SDS011;13772;52.996;9.124;2023-02-03T19:00:38;33.80;;;5.60;;
25980;SDS011;13772;52.996;9.124;2023-02-03T19:03:04;32.05;;;5.82;;
25980;SDS011;13772;52.996;9.124;2023-02-03T19:05:29;33.80;;;6.28;;
25980;SDS011;13772;52.996;9.124;2023-02-03T19:07:54;35.70;;;6.07;;
25980;SDS011;13772;52.996;9.124;2023-02-03T19:10:20;31.55;;;6.18;;
25980;SDS011;13772;52.996;9.124;2023-02-03T19:12:45;29.15;;;6.70;;
25980;SDS011;13772;52.996;9.124;2023-02-03T19:15:10;30.20;;;5.63;;
25980;SDS011;13772;52.996;9.124;2023-02-03T19:17:35;31.65;;;5.88;;
25980;SDS011;13772;52.996;9.124;2023-02-03T19:20:01;30.10;;;5.45;;
25980;SDS011;13772;52.996;9.124;2023-02-03T19:22:30;27.90;;;6.28;;
25980;SDS011;13772;52.996;9.124;2023-02-03T19:24:55;28.67;;;5.32;;
25980;SDS011;13772;52.996;9.124;2023-02-03T19:27:21;35.90;;;5.93;;
25980;SDS011;13772;52.996;9.124;2023-02-03T19:29:46;28.13;;;5.50;;
25980;SDS011;13772;52.996;9.124;2023-02-03T19:32:11;35.80;;;6.95;;
25980;SDS011;13772;52.996;9.124;2023-02-03T19:34:36;38.03;;;5.80;;
25980;SDS011;13772;52.996;9.124;2023-02-03T19:37:02;34.78;;;6.55;;
25980;SDS011;13772;52.996;9.124;2023-02-03T19:39:27;27.33;;;5.72;;
25980;SDS011;13772;52.996;9.124;2023-02-03T19:41:52;27.83;;;5.18;;
25980;SDS011;13772;52.996;9.124;2023-02-03T19:44:17;33.30;;;5.53;;
25980;SDS011;13772;52.996;9.124;2023-02-03T19:46:42;36.78;;;5.97;;
25980;SDS011;13772;52.996;9.124;2023-02-03T19:49:08;28.42;;;5.38;;
25980;SDS011;13772;52.996;9.124;2023-02-03T19:51:39;31.55;;;6.97;;
25980;SDS011;13772;52.996;9.124;2023-02-03T19:54:04;40.63;;;6.60;;
25980;SDS011;13772;52.996;9.124;2023-02-03T19:56:29;48.50;;;7.40;;
25980;SDS011;13772;52.996;9.124;2023-02-03T19:58:55;36.08;;;6.05;;
25980;SDS011;13772;52.996;9.124;2023-02-03T20:01:20;37.95;;;7.22;;
25980;SDS011;13772;52.996;9.124;2023-02-03T20:03:46;42.53;;;7.63;;
25980;SDS011;13772;52.996;9.124;2023-02-03T20:06:12;31.88;;;6.88;;
25980;SDS011;13772;52.996;9.124;2023-02-03T20:08:37;38.40;;;6.80;;
25980;SDS011;13772;52.996;9.124;2023-02-03T20:11:02;27.30;;;5.78;;
25980;SDS011;13772;52.996;9.124;2023-02-03T20:13:27;33.53;;;6.50;;
25980;SDS011;13772;52.996;9.124;2023-02-03T20:15:53;34.63;;;6.50;;
25980;SDS011;13772;52.996;9.124;2023-02-03T20:18:18;37.40;;;6.13;;
25980;SDS011;13772;52.996;9.124;2023-02-03T20:20:43;36.28;;;6.53;;
25980;SDS011;13772;52.996;9.124;2023-02-03T20:23:08;34.10;;;5.93;;
25980;SDS011;13772;52.996;9.124;2023-02-03T20:25:33;33.35;;;6.80;;
25980;SDS011;13772;52.996;9.124;2023-02-03T20:27:59;37.55;;;7.93;;
25980;SDS011;13772;52.996;9.124;2023-02-03T20:30:26;40.80;;;7.50;;
25980;SDS011;13772;52.996;9.124;2023-02-03T20:32:51;35.10;;;6.05;;
25980;SDS011;13772;52.996;9.124;2023-02-03T20:35:18;28.83;;;5.95;;
25980;SDS011;13772;52.996;9.124;2023-02-03T20:37:44;41.97;;;7.15;;
25980;SDS011;13772;52.996;9.124;2023-02-03T20:40:11;34.95;;;6.70;;
25980;SDS011;13772;52.996;9.124;2023-02-03T20:42:37;36.55;;;6.22;;
25980;SDS011;13772;52.996;9.124;2023-02-03T20:45:05;33.97;;;5.80;;
25980;SDS011;13772;52.996;9.124;2023-02-03T20:47:31;34.88;;;6.30;;
25980;SDS011;13772;52.996;9.124;2023-02-03T20:49:56;35.17;;;6.47;;
25980;SDS011;13772;52.996;9.124;2023-02-03T20:52:21;41.63;;;8.20;;
25980;SDS011;13772;52.996;9.124;2023-02-03T20:54:47;39.55;;;6.80;;
25980;SDS011;13772;52.996;9.124;2023-02-03T20:57:16;44.33;;;10.20;;
25980;SDS011;13772;52.996;9.124;2023-02-03T20:59:41;38.00;;;8.00;;
25980;SDS011;13772;52.996;9.124;2023-02-03T21:02:42;34.13;;;6.00;;
25980;SDS011;13772;52.996;9.124;2023-02-03T21:05:22;40.13;;;6.95;;
25980;SDS011;13772;52.996;9.124;2023-02-03T21:07:47;33.35;;;6.65;;
25980;SDS011;13772;52.996;9.124;2023-02-03T21:10:15;33.17;;;7.30;;
25980;SDS011;13772;52.996;9.124;2023-02-03T21:12:41;50.00;;;7.27;;
25980;SDS011;13772;52.996;9.124;2023-02-03T21:15:16;33.55;;;6.35;;
25980;SDS011;13772;52.996;9.124;2023-02-03T21:17:41;38.65;;;7.20;;
25980;SDS011;13772;52.996;9.124;2023-02-03T21:20:11;34.85;;;6.90;;
25980;SDS011;13772;52.996;9.124;2023-02-03T21:22:37;45.22;;;7.50;;
25980;SDS011;13772;52.996;9.124;2023-02-03T21:25:02;42.05;;;7.28;;
25980;SDS011;13772;52.996;9.124;2023-02-03T21:27:29;30.63;;;5.78;;
25980;SDS011;13772;52.996;9.124;2023-02-03T21:29:55;37.10;;;7.28;;
25980;SDS011;13772;52.996;9.124;2023-02-03T21:32:21;38.67;;;6.43;;
25980;SDS011;13772;52.996;9.124;2023-02-03T21:34:47;39.22;;;6.57;;
25980;SDS011;13772;52.996;9.124;2023-02-03T21:39:43;31.92;;;6.00;;
25980;SDS011;13772;52.996;9.124;2023-02-03T21:42:18;40.17;;;6.82;;
25980;SDS011;13772;52.996;9.124;2023-02-03T21:47:39;39.72;;;6.85;;
25980;SDS011;13772;52.996;9.124;2023-02-03T21:50:23;47.25;;;6.72;;
25980;SDS011;13772;52.996;9.124;2023-02-03T21:52:49;40.55;;;7.30;;
25980;SDS011;13772;52.996;9.124;2023-02-03T21:55:14;40.65;;;7.05;;
25980;SDS011;13772;52.996;9.124;2023-02-03T21:57:39;33.83;;;6.93;;
25980;SDS011;13772;52.996;9.124;2023-02-03T22:02:57;44.05;;;7.60;;
25980;SDS011;13772;52.996;9.124;2023-02-03T22:05:23;39.65;;;6.75;;
25980;SDS011;13772;52.996;9.124;2023-02-03T22:07:48;36.28;;;6.97;;
25980;SDS011;13772;52.996;9.124;2023-02-03T22:10:13;37.90;;;6.32;;
25980;SDS011;13772;52.996;9.124;2023-02-03T22:12:38;32.05;;;6.70;;
25980;SDS011;13772;52.996;9.124;2023-02-03T22:15:04;36.20;;;7.00;;
25980;SDS011;13772;52.996;9.124;2023-02-03T22:17:29;35.58;;;6.57;;
25980;SDS011;13772;52.996;9.124;2023-02-03T22:19:54;32.08;;;5.47;;
25980;SDS011;13772;52.996;9.124;2023-02-03T22:22:19;36.95;;;4.85;;
25980;SDS011;13772;52.996;9.124;2023-02-03T22:24:45;30.85;;;5.18;;
25980;SDS011;13772;52.996;9.124;2023-02-03T22:27:10;30.52;;;5.65;;
25980;SDS011;13772;52.996;9.124;2023-02-03T22:29:35;30.48;;;4.55;;
25980;SDS011;13772;52.996;9.124;2023-02-03T22:32:01;22.73;;;4.13;;
25980;SDS011;13772;52.996;9.124;2023-02-03T22:34:27;27.17;;;4.32;;
25980;SDS011;13772;52.996;9.124;2023-02-03T22:36:52;26.73;;;3.72;;
25980;SDS011;13772;52.996;9.124;2023-02-03T22:39:17;24.67;;;4.72;;
25980;SDS011;13772;52.996;9.124;2023-02-03T22:41:42;19.75;;;4.35;;
25980;SDS011;13772;52.996;9.124;2023-02-03T22:44:07;18.45;;;3.83;;
